createdAt,value
2023-05-04T00:00:04.109Z,5.12
2023-05-04T00:02:32.402Z,4.73
2023-05-04T00:04:59.914Z,4.13
2023-05-04T00:07:27.375Z,4.50
2023-05-04T00:09:55.691Z,3.97
2023-05-04T00:12:23.248Z,3.80
2023-05-04T00:14:50.778Z,4.27
2023-05-04T00:17:18.305Z,3.93
2023-05-04T00:19:45.868Z,5.60
2023-05-04T00:22:13.404Z,5.50
2023-05-04T00:24:40.938Z,5.83
2023-05-04T00:27:08.512Z,6.37
2023-05-04T00:29:36.043Z,4.83
2023-05-04T00:32:03.736Z,4.43
2023-05-04T00:34:31.129Z,5.00
2023-05-04T00:36:58.656Z,4.60
2023-05-04T00:39:26.189Z,4.27
2023-05-04T00:41:53.752Z,4.33
2023-05-04T00:44:21.306Z,3.90
2023-05-04T00:46:48.862Z,4.97
2023-05-04T00:49:17.538Z,5.43
2023-05-04T00:51:45.071Z,5.03
2023-05-04T00:54:13.365Z,5.20
2023-05-04T00:56:41.730Z,3.90
2023-05-04T00:59:09.244Z,3.63
2023-05-04T01:01:36.791Z,4.17
2023-05-04T01:04:04.506Z,5.12
2023-05-04T01:06:40.810Z,4.30
2023-05-04T01:09:08.401Z,4.20
2023-05-04T01:11:41.991Z,4.10
2023-05-04T01:14:09.535Z,4.20
2023-05-04T01:16:37.118Z,4.23
2023-05-04T01:19:04.658Z,3.80
2023-05-04T01:21:32.169Z,4.03
2023-05-04T01:24:00.469Z,3.73
2023-05-04T01:26:28.057Z,4.20
2023-05-04T01:29:14.285Z,4.00
2023-05-04T01:31:41.838Z,3.73
2023-05-04T01:34:09.365Z,4.10
2023-05-04T01:36:36.896Z,3.67
2023-05-04T01:39:04.464Z,3.47
2023-05-04T01:41:32.011Z,4.77
2023-05-04T01:44:00.306Z,3.97
2023-05-04T01:46:28.192Z,4.57
2023-05-04T01:48:55.721Z,4.37
2023-05-04T01:51:24.060Z,4.95
2023-05-04T01:53:51.886Z,4.17
2023-05-04T01:56:19.408Z,4.07
2023-05-04T01:58:46.940Z,4.30
2023-05-04T02:01:14.552Z,4.80
2023-05-04T02:03:42.111Z,4.10
2023-05-04T02:06:09.588Z,4.00
2023-05-04T02:08:37.161Z,4.03
2023-05-04T02:11:04.696Z,4.23
2023-05-04T02:13:32.233Z,4.40
2023-05-04T02:15:59.875Z,4.10
2023-05-04T02:18:27.328Z,4.50
2023-05-04T02:20:55.633Z,4.10
2023-05-04T02:23:23.511Z,4.27
2023-05-04T02:25:51.038Z,4.43
2023-05-04T02:28:19.356Z,4.13
2023-05-04T02:30:47.506Z,4.20
2023-05-04T02:33:15.046Z,4.40
2023-05-04T02:35:43.338Z,4.83
2023-05-04T02:38:10.909Z,4.53
2023-05-04T02:40:38.436Z,4.23
2023-05-04T02:43:06.739Z,4.50
2023-05-04T02:45:36.136Z,4.17
2023-05-04T02:48:03.603Z,4.23
2023-05-04T02:50:31.091Z,4.73
2023-05-04T02:52:58.649Z,4.37
2023-05-04T02:55:26.179Z,4.43
2023-05-04T02:57:53.712Z,4.60
2023-05-04T03:00:22.826Z,4.40
2023-05-04T03:02:50.406Z,4.87
2023-05-04T03:05:18.669Z,4.60
2023-05-04T03:07:46.241Z,4.57
2023-05-04T03:10:13.764Z,4.70
2023-05-04T03:12:42.074Z,4.57
2023-05-04T03:15:09.637Z,4.57
2023-05-04T03:17:37.285Z,5.68
2023-05-04T03:20:04.993Z,4.57
2023-05-04T03:22:32.733Z,4.73
2023-05-04T03:25:00.276Z,4.77
2023-05-04T03:27:27.804Z,4.70
2023-05-04T03:29:56.130Z,4.57
2023-05-04T03:32:23.655Z,4.10
2023-05-04T03:34:51.177Z,4.63
2023-05-04T03:37:19.318Z,4.20
2023-05-04T03:39:46.849Z,4.37
2023-05-04T03:42:14.372Z,4.83
2023-05-04T03:44:41.926Z,4.63
2023-05-04T03:47:09.688Z,4.47
2023-05-04T03:49:37.200Z,4.63
2023-05-04T03:52:04.777Z,4.77
2023-05-04T03:54:32.339Z,4.27
2023-05-04T03:56:59.817Z,4.63
2023-05-04T03:59:27.392Z,4.93
2023-05-04T04:01:55.710Z,5.57
2023-05-04T04:04:23.328Z,5.33
2023-05-04T04:06:51.590Z,4.67
2023-05-04T04:09:19.112Z,4.33
2023-05-04T04:11:46.639Z,4.57
2023-05-04T04:14:14.234Z,4.87
2023-05-04T04:16:41.855Z,4.97
2023-05-04T04:19:09.459Z,5.03
2023-05-04T04:21:36.879Z,4.63
2023-05-04T04:24:05.207Z,4.43
2023-05-04T04:26:32.731Z,4.43
2023-05-04T04:29:00.312Z,6.10
2023-05-04T04:31:27.920Z,5.33
2023-05-04T04:33:55.382Z,4.23
2023-05-04T04:36:24.715Z,5.03
2023-05-04T04:38:52.255Z,4.83
2023-05-04T04:41:19.792Z,5.57
2023-05-04T04:43:47.345Z,5.53
2023-05-04T04:46:14.881Z,4.33
2023-05-04T04:48:42.409Z,4.10
2023-05-04T04:51:12.711Z,4.30
2023-05-04T04:53:40.244Z,4.37
2023-05-04T04:56:07.778Z,4.37
2023-05-04T04:58:35.370Z,4.53
2023-05-04T05:01:03.767Z,4.40
2023-05-04T05:03:31.203Z,4.43
2023-05-04T05:05:59.328Z,4.10
2023-05-04T05:08:26.877Z,4.33
2023-05-04T05:10:54.399Z,4.87
2023-05-04T05:13:22.743Z,5.00
2023-05-04T05:15:50.259Z,4.33
2023-05-04T05:18:17.773Z,5.27
2023-05-04T05:20:45.358Z,4.70
2023-05-04T05:23:13.646Z,4.93
2023-05-04T05:25:41.174Z,4.47
2023-05-04T05:28:08.757Z,5.57
2023-05-04T05:30:37.075Z,5.53
2023-05-04T05:33:04.622Z,5.17
2023-05-04T05:35:32.905Z,4.47
2023-05-04T05:38:00.451Z,3.70
2023-05-04T05:40:27.975Z,4.37
2023-05-04T05:42:57.116Z,4.50
2023-05-04T05:45:24.687Z,4.20
2023-05-04T05:47:52.984Z,4.43
2023-05-04T05:50:20.517Z,4.70
2023-05-04T05:52:48.127Z,4.80
2023-05-04T05:55:15.600Z,5.83
2023-05-04T05:57:43.161Z,4.87
2023-05-04T06:00:10.834Z,5.40
2023-05-04T06:02:38.407Z,5.03
2023-05-04T06:05:06.092Z,4.73
2023-05-04T06:07:34.245Z,4.00
2023-05-04T06:10:01.776Z,3.90
2023-05-04T06:12:30.143Z,4.03
2023-05-04T06:14:57.654Z,3.93
2023-05-04T06:17:25.298Z,3.40
2023-05-04T06:19:52.764Z,3.47
2023-05-04T06:22:20.281Z,3.27
2023-05-04T06:24:47.810Z,3.70
2023-05-04T06:27:15.370Z,3.90
2023-05-04T06:29:42.929Z,4.43
2023-05-04T06:32:10.542Z,3.93
2023-05-04T06:34:38.029Z,3.37
2023-05-04T06:39:43.150Z,4.00
2023-05-04T06:42:10.706Z,3.20
2023-05-04T06:44:38.246Z,3.60
2023-05-04T06:47:06.575Z,3.60
2023-05-04T06:49:34.104Z,3.33
2023-05-04T06:52:01.977Z,4.03
2023-05-04T06:54:29.574Z,3.62
2023-05-04T06:56:57.120Z,3.37
2023-05-04T06:59:24.652Z,3.90
2023-05-04T07:01:52.255Z,3.57
2023-05-04T07:04:22.284Z,3.20
2023-05-04T07:06:50.606Z,3.30
2023-05-04T07:09:21.233Z,3.33
2023-05-04T07:11:48.811Z,3.47
2023-05-04T07:14:17.069Z,3.30
2023-05-04T07:16:44.754Z,3.70
2023-05-04T07:19:12.157Z,3.63
2023-05-04T07:21:40.482Z,3.20
2023-05-04T07:24:08.043Z,3.73
2023-05-04T07:26:35.582Z,3.87
2023-05-04T07:29:03.098Z,3.40
2023-05-04T07:31:31.640Z,3.90
2023-05-04T07:33:58.980Z,3.67
2023-05-04T07:36:26.543Z,3.30
2023-05-04T07:38:54.872Z,3.73
2023-05-04T07:41:22.409Z,3.63
2023-05-04T07:43:49.941Z,3.83
2023-05-04T07:46:17.525Z,4.37
2023-05-04T07:48:45.049Z,3.93
2023-05-04T07:51:15.297Z,4.30
2023-05-04T07:53:43.226Z,4.63
2023-05-04T07:56:13.685Z,4.43
2023-05-04T07:58:41.259Z,4.80
2023-05-04T08:01:09.102Z,4.47
2023-05-04T08:03:36.629Z,4.40
2023-05-04T08:06:04.920Z,4.47
2023-05-04T08:08:32.529Z,5.00
2023-05-04T08:11:11.624Z,4.80
2023-05-04T08:13:28.311Z,4.63
2023-05-04T08:15:55.896Z,4.00
2023-05-04T08:18:23.515Z,4.50
2023-05-04T08:20:51.036Z,4.40
2023-05-04T08:23:18.597Z,4.60
2023-05-04T08:25:46.139Z,4.50
2023-05-04T08:28:13.679Z,4.75
2023-05-04T08:30:41.253Z,4.03
2023-05-04T08:33:08.841Z,4.30
2023-05-04T08:35:36.322Z,4.77
2023-05-04T08:38:04.665Z,4.20
2023-05-04T08:40:34.721Z,4.07
2023-05-04T08:43:03.017Z,3.97
2023-05-04T08:45:30.920Z,4.23
2023-05-04T08:47:58.436Z,3.83
2023-05-04T08:50:26.722Z,3.67
2023-05-04T08:52:54.584Z,3.77
2023-05-04T08:55:22.151Z,3.97
2023-05-04T08:57:51.170Z,3.77
2023-05-04T09:00:17.998Z,3.63
2023-05-04T09:02:45.622Z,3.70
2023-05-04T09:05:13.819Z,3.77
2023-05-04T09:07:41.708Z,3.27
2023-05-04T09:10:09.350Z,3.50
2023-05-04T09:12:36.916Z,3.50
2023-05-04T09:15:19.290Z,3.53
2023-05-04T09:18:02.327Z,3.50
2023-05-04T09:20:30.645Z,3.23
2023-05-04T09:23:06.635Z,3.53
2023-05-04T09:25:34.977Z,3.37
2023-05-04T09:28:02.512Z,3.63
2023-05-04T09:30:30.062Z,3.53
2023-05-04T09:32:57.651Z,3.13
2023-05-04T09:35:33.239Z,3.37
2023-05-04T09:37:55.876Z,3.07
2023-05-04T09:40:38.392Z,3.40
2023-05-04T09:43:06.827Z,3.47
2023-05-04T09:45:40.071Z,2.90
2023-05-04T09:48:22.498Z,2.87
2023-05-04T09:50:50.031Z,3.00
2023-05-04T09:53:18.356Z,3.00
2023-05-04T09:55:45.964Z,3.40
2023-05-04T09:58:14.551Z,3.50
2023-05-04T10:00:42.891Z,2.70
2023-05-04T10:03:10.480Z,3.23
2023-05-04T10:05:37.996Z,3.10
2023-05-04T10:08:05.508Z,3.30
2023-05-04T10:10:34.147Z,3.10
2023-05-04T10:13:01.696Z,2.87
2023-05-04T10:15:29.237Z,2.80
2023-05-04T10:18:30.200Z,3.87
2023-05-04T10:20:57.726Z,3.60
2023-05-04T10:23:30.943Z,3.40
2023-05-04T10:26:08.036Z,2.93
2023-05-04T10:28:44.081Z,2.93
2023-05-04T10:31:11.671Z,2.67
2023-05-04T10:33:42.071Z,2.33
2023-05-04T10:36:09.579Z,2.07
2023-05-04T10:38:37.950Z,2.20
2023-05-04T10:41:14.404Z,2.10
2023-05-04T10:43:42.343Z,2.27
2023-05-04T10:46:18.856Z,1.83
2023-05-04T10:48:47.377Z,2.00
2023-05-04T10:51:20.650Z,1.90
2023-05-04T10:53:48.941Z,2.23
2023-05-04T10:56:20.327Z,2.20
2023-05-04T10:58:47.854Z,2.30
2023-05-04T11:01:15.415Z,1.87
2023-05-04T11:03:44.100Z,1.90
2023-05-04T11:06:23.361Z,1.90
2023-05-04T11:08:47.840Z,2.13
2023-05-04T11:11:15.423Z,2.00
2023-05-04T11:13:42.952Z,2.07
2023-05-04T11:16:10.488Z,3.33
2023-05-04T11:18:38.310Z,2.80
2023-05-04T11:21:05.846Z,2.60
2023-05-04T11:23:33.355Z,2.62
2023-05-04T11:26:08.004Z,2.40
2023-05-04T11:28:37.770Z,2.50
2023-05-04T11:31:14.407Z,2.63
2023-05-04T11:33:45.585Z,2.30
2023-05-04T11:36:13.112Z,2.27
2023-05-04T11:38:40.679Z,2.83
2023-05-04T11:41:08.202Z,2.40
2023-05-04T11:43:35.737Z,2.40
2023-05-04T11:46:04.156Z,3.30
2023-05-04T11:48:31.606Z,3.63
2023-05-04T11:50:59.149Z,2.83
2023-05-04T11:53:27.487Z,2.70
2023-05-04T11:55:55.016Z,2.83
2023-05-04T11:58:25.488Z,2.70
2023-05-04T12:00:56.916Z,2.60
2023-05-04T12:03:43.815Z,2.40
2023-05-04T12:05:58.813Z,2.23
2023-05-04T12:08:34.566Z,2.80
2023-05-04T12:11:17.839Z,2.90
2023-05-04T12:13:45.396Z,2.17
2023-05-04T12:16:13.017Z,2.87
2023-05-04T12:18:40.478Z,2.43
2023-05-04T12:21:14.541Z,2.90
2023-05-04T12:23:42.073Z,2.60
2023-05-04T12:26:09.590Z,2.77
2023-05-04T12:28:37.178Z,2.60
2023-05-04T12:31:05.484Z,2.50
2023-05-04T12:33:32.993Z,2.23
2023-05-04T12:36:01.386Z,2.53
2023-05-04T12:38:28.922Z,2.40
2023-05-04T12:40:56.433Z,2.67
2023-05-04T12:43:24.284Z,2.42
2023-05-04T12:45:51.864Z,2.57
2023-05-04T12:48:22.571Z,2.77
2023-05-04T12:50:50.135Z,2.57
2023-05-04T12:53:17.659Z,2.90
2023-05-04T12:55:45.982Z,2.67
2023-05-04T12:58:13.538Z,2.37
2023-05-04T13:00:41.083Z,2.90
2023-05-04T13:03:08.745Z,3.00
2023-05-04T13:05:36.222Z,2.90
2023-05-04T13:08:03.764Z,2.90
2023-05-04T13:10:31.303Z,2.77
2023-05-04T13:12:59.648Z,2.77
2023-05-04T13:15:27.165Z,2.83
2023-05-04T13:17:54.753Z,2.83
2023-05-04T13:20:22.280Z,2.33
2023-05-04T13:22:49.815Z,2.57
2023-05-04T13:25:17.350Z,2.73
2023-05-04T13:27:44.904Z,2.80
2023-05-04T13:30:12.548Z,2.80
2023-05-04T13:32:40.035Z,2.80
2023-05-04T13:35:07.927Z,2.78
2023-05-04T13:37:35.333Z,2.30
2023-05-04T13:40:02.871Z,2.70
2023-05-04T13:42:30.428Z,2.40
2023-05-04T13:44:57.953Z,2.40
2023-05-04T13:47:26.310Z,2.43
2023-05-04T13:49:53.832Z,2.30
2023-05-04T13:52:21.366Z,2.30
2023-05-04T13:54:48.906Z,1.97
2023-05-04T13:57:17.286Z,2.37
2023-05-04T13:59:58.394Z,2.30
2023-05-04T14:02:12.353Z,2.37
2023-05-04T14:04:40.082Z,3.40
2023-05-04T14:07:07.717Z,2.37
2023-05-04T14:09:35.271Z,2.50
2023-05-04T14:12:03.114Z,2.27
2023-05-04T14:14:30.661Z,2.30
2023-05-04T14:16:58.216Z,2.13
2023-05-04T14:19:26.574Z,1.90
2023-05-04T14:21:54.106Z,1.80
2023-05-04T14:24:22.402Z,2.23
2023-05-04T14:26:50.994Z,2.07
2023-05-04T14:29:18.521Z,1.97
2023-05-04T14:31:46.878Z,2.90
2023-05-04T14:34:14.430Z,2.10
2023-05-04T14:36:41.950Z,1.80
2023-05-04T14:39:09.478Z,2.47
2023-05-04T14:41:37.812Z,2.20
2023-05-04T14:44:05.333Z,2.40
2023-05-04T14:46:32.977Z,2.30
2023-05-04T14:49:01.214Z,1.97
2023-05-04T14:51:28.740Z,2.13
2023-05-04T14:53:56.272Z,2.10
2023-05-04T14:56:24.621Z,2.20
2023-05-04T14:58:52.140Z,2.37
2023-05-04T15:01:19.734Z,2.33
2023-05-04T15:03:47.329Z,2.50
2023-05-04T15:06:14.779Z,2.20
2023-05-04T15:08:43.079Z,1.77
2023-05-04T15:11:10.638Z,2.20
2023-05-04T15:13:38.174Z,1.77
2023-05-04T15:16:06.554Z,2.17
2023-05-04T15:18:34.094Z,2.50
2023-05-04T15:21:01.627Z,2.40
2023-05-04T15:23:29.162Z,2.40
2023-05-04T15:25:56.745Z,2.28
2023-05-04T15:28:24.281Z,2.10
2023-05-04T15:30:51.803Z,2.10
2023-05-04T15:33:20.128Z,2.20
2023-05-04T15:35:47.648Z,2.20
2023-05-04T15:38:15.173Z,2.30
2023-05-04T15:40:42.740Z,2.30
2023-05-04T15:43:10.274Z,2.20
2023-05-04T15:45:37.799Z,2.43
2023-05-04T15:48:05.702Z,2.47
2023-05-04T15:50:33.391Z,2.17
2023-05-04T15:53:00.701Z,2.40
2023-05-04T15:55:28.294Z,2.30
2023-05-04T15:57:55.822Z,2.43
2023-05-04T16:00:23.373Z,2.50
2023-05-04T16:02:51.331Z,2.50
2023-05-04T16:05:19.489Z,2.30
2023-05-04T16:07:47.025Z,2.47
2023-05-04T16:10:15.381Z,2.47
2023-05-04T16:12:42.932Z,2.20
2023-05-04T16:15:10.516Z,2.35
2023-05-04T16:17:38.117Z,2.40
2023-05-04T16:20:06.639Z,2.10
2023-05-04T16:22:34.047Z,2.10
2023-05-04T16:25:02.014Z,2.27
2023-05-04T16:27:29.253Z,2.10
2023-05-04T16:29:56.680Z,2.30
2023-05-04T16:32:24.304Z,2.17
2023-05-04T16:34:52.559Z,2.30
2023-05-04T16:37:20.105Z,1.90
2023-05-04T16:39:48.453Z,2.00
2023-05-04T16:42:15.958Z,1.93
2023-05-04T16:44:43.487Z,2.37
2023-05-04T16:47:11.836Z,2.20
2023-05-04T16:49:39.355Z,2.30
2023-05-04T16:52:06.885Z,2.90
2023-05-04T16:54:35.238Z,2.35
2023-05-04T16:57:02.772Z,1.83
2023-05-04T16:59:30.312Z,2.40
2023-05-04T17:01:57.932Z,2.40
2023-05-04T17:04:25.398Z,2.63
2023-05-04T17:06:53.699Z,2.43
2023-05-04T17:09:21.292Z,2.20
2023-05-04T17:11:48.978Z,2.27
2023-05-04T17:14:17.228Z,2.73
2023-05-04T17:16:44.803Z,3.40
2023-05-04T17:19:12.351Z,2.30
2023-05-04T17:21:39.879Z,2.33
2023-05-04T17:24:07.461Z,2.50
2023-05-04T17:26:34.983Z,2.70
2023-05-04T17:29:02.511Z,2.55
2023-05-04T17:31:30.516Z,2.63
2023-05-04T17:33:58.005Z,2.47
2023-05-04T17:36:25.539Z,2.30
2023-05-04T17:38:53.096Z,2.33
2023-05-04T17:41:20.657Z,2.23
2023-05-04T17:43:48.966Z,2.40
2023-05-04T17:46:16.527Z,2.50
2023-05-04T17:48:44.030Z,2.30
2023-05-04T17:51:12.343Z,2.90
2023-05-04T17:53:40.212Z,2.57
2023-05-04T17:56:07.786Z,2.63
2023-05-04T17:58:35.283Z,3.00
2023-05-04T18:01:02.848Z,2.80
2023-05-04T18:03:31.207Z,2.70
2023-05-04T18:05:58.680Z,2.90
2023-05-04T18:08:27.027Z,2.90
2023-05-04T18:10:54.549Z,2.70
2023-05-04T18:13:22.166Z,2.90
2023-05-04T18:15:50.436Z,3.23
2023-05-04T18:18:17.950Z,2.97
2023-05-04T18:20:45.485Z,2.80
2023-05-04T18:23:13.095Z,2.60
2023-05-04T18:25:40.608Z,2.70
2023-05-04T18:28:08.140Z,2.47
2023-05-04T18:30:35.703Z,2.80
2023-05-04T18:33:04.022Z,2.60
2023-05-04T18:35:32.292Z,2.60
2023-05-04T18:37:59.872Z,2.43
2023-05-04T18:40:27.408Z,3.27
2023-05-04T18:42:54.958Z,2.97
2023-05-04T18:45:22.840Z,2.70
2023-05-04T18:47:50.430Z,3.83
2023-05-04T18:50:17.903Z,4.67
2023-05-04T18:52:45.483Z,5.00
2023-05-04T18:55:13.809Z,4.13
2023-05-04T18:57:41.336Z,3.53
2023-05-04T19:00:09.969Z,3.40
2023-05-04T19:02:37.389Z,2.60
2023-05-04T19:05:04.964Z,2.80
2023-05-04T19:07:32.506Z,2.97
2023-05-04T19:10:00.028Z,3.10
2023-05-04T19:12:27.546Z,4.43
2023-05-04T19:14:55.127Z,3.77
2023-05-04T19:17:22.733Z,3.53
2023-05-04T19:19:50.190Z,3.87
2023-05-04T19:22:17.767Z,3.57
2023-05-04T19:24:45.287Z,3.50
2023-05-04T19:27:13.581Z,2.93
2023-05-04T19:29:41.180Z,2.83
2023-05-04T19:32:22.723Z,3.60
2023-05-04T19:34:36.229Z,3.40
2023-05-04T19:37:03.847Z,3.33
2023-05-04T19:39:31.376Z,3.47
2023-05-04T19:41:58.897Z,3.53
2023-05-04T19:44:26.470Z,3.50
2023-05-04T19:46:54.032Z,4.07
2023-05-04T19:49:21.516Z,4.10
2023-05-04T19:51:49.128Z,4.17
2023-05-04T19:54:16.663Z,4.20
2023-05-04T19:56:44.190Z,5.00
2023-05-04T19:59:11.763Z,4.43
2023-05-04T20:01:39.290Z,4.37
2023-05-04T20:04:07.582Z,10.67
2023-05-04T20:06:35.156Z,13.87
2023-05-04T20:09:02.689Z,16.47
2023-05-04T20:11:30.232Z,15.27
2023-05-04T20:13:58.589Z,11.70
2023-05-04T20:16:26.141Z,15.80
2023-05-04T20:18:53.687Z,16.33
2023-05-04T20:21:21.269Z,14.77
2023-05-04T20:23:48.799Z,18.80
2023-05-04T20:26:16.352Z,25.50
2023-05-04T20:28:43.926Z,28.40
2023-05-04T20:31:11.463Z,17.90
2023-05-04T20:33:38.996Z,9.90
2023-05-04T20:36:07.373Z,10.40
2023-05-04T20:38:34.909Z,9.10
2023-05-04T20:41:05.302Z,8.87
2023-05-04T20:43:32.876Z,8.53
2023-05-04T20:46:00.452Z,6.80
2023-05-04T20:48:27.969Z,6.37
2023-05-04T20:51:06.600Z,6.17
2023-05-04T20:53:23.054Z,6.00
2023-05-04T20:55:51.357Z,5.67
2023-05-04T20:58:18.924Z,5.57
2023-05-04T21:00:46.473Z,5.23
2023-05-04T21:03:14.077Z,4.90
2023-05-04T21:05:42.363Z,4.73
2023-05-04T21:08:09.897Z,4.67
2023-05-04T21:10:37.439Z,5.20
2023-05-04T21:13:05.825Z,4.68
2023-05-04T21:15:33.318Z,4.53
2023-05-04T21:18:01.653Z,4.40
2023-05-04T21:20:30.310Z,4.00
2023-05-04T21:22:57.843Z,4.13
2023-05-04T21:25:26.157Z,4.97
2023-05-04T21:27:53.720Z,4.47
2023-05-04T21:30:21.276Z,4.20
2023-05-04T21:32:48.828Z,4.40
2023-05-04T21:35:17.425Z,4.70
2023-05-04T21:37:44.942Z,4.50
2023-05-04T21:40:13.277Z,4.30
2023-05-04T21:42:40.827Z,4.57
2023-05-04T21:45:08.483Z,4.57
2023-05-04T21:47:36.078Z,4.50
2023-05-04T21:50:04.361Z,4.13
2023-05-04T21:52:31.884Z,4.63
2023-05-04T21:54:59.416Z,5.03
2023-05-04T21:57:26.999Z,4.97
2023-05-04T21:59:54.541Z,4.90
2023-05-04T22:02:22.082Z,4.67
2023-05-04T22:04:50.406Z,4.93
2023-05-04T22:07:17.946Z,4.50
2023-05-04T22:09:45.475Z,4.60
2023-05-04T22:12:13.829Z,5.13
2023-05-04T22:14:42.537Z,4.40
2023-05-04T22:17:08.979Z,4.63
2023-05-04T22:19:37.272Z,4.83
2023-05-04T22:22:04.828Z,5.20
2023-05-04T22:24:33.092Z,4.93
2023-05-04T22:27:00.680Z,5.27
2023-05-04T22:29:28.215Z,5.10
2023-05-04T22:31:55.727Z,4.80
2023-05-04T22:34:23.842Z,5.10
2023-05-04T22:36:51.365Z,5.50
2023-05-04T22:39:18.908Z,4.77
2023-05-04T22:41:46.844Z,5.75
2023-05-04T22:44:14.417Z,5.80
2023-05-04T22:46:42.011Z,5.10
2023-05-04T22:49:10.275Z,5.30
2023-05-04T22:51:37.795Z,4.77
2023-05-04T22:54:05.333Z,5.07
2023-05-04T22:56:34.441Z,4.53
2023-05-04T22:59:01.980Z,5.17
2023-05-04T23:01:29.526Z,5.50
2023-05-04T23:03:57.242Z,5.00
2023-05-04T23:06:24.596Z,4.70
2023-05-04T23:08:52.123Z,5.43
2023-05-04T23:11:22.394Z,4.80
2023-05-04T23:13:49.922Z,4.70
2023-05-04T23:16:17.494Z,5.10
2023-05-04T23:18:46.167Z,5.00
2023-05-04T23:21:13.698Z,5.07
2023-05-04T23:23:41.999Z,5.03
2023-05-04T23:26:10.588Z,5.20
2023-05-04T23:28:38.847Z,5.03
2023-05-04T23:31:06.379Z,5.63
2023-05-04T23:33:33.946Z,5.13
2023-05-04T23:36:02.264Z,4.80
2023-05-04T23:38:29.785Z,5.67
2023-05-04T23:40:58.188Z,5.10
2023-05-04T23:43:25.720Z,5.33
2023-05-04T23:46:00.057Z,4.97
2023-05-04T23:48:27.575Z,4.97
2023-05-04T23:50:55.110Z,4.90
2023-05-04T23:53:22.681Z,5.27
2023-05-04T23:56:02.647Z,5.10
2023-05-04T23:58:27.376Z,4.73
